Time;durP1;ratioP1;P1;durP2;ratioP2;P2;SDS_P1;SDS_P2;PMS_P1;PMS_P2;Temp;Humidity;BMP_temperature;BMP_pressure;BME280_temperature;BME280_humidity;BME280_pressure;Samples;Min_cycle;Max_cycle;Signal;HPM_P1;HPM_P2
2022/09/23 00:00:11;;;;;;;;;4.00;4.00;;;;;;;;5118731;27;47429;-68
2022/09/23 00:02:36;;;;;;;;;4.00;4.00;;;;;;;;5118439;27;45422;-68
2022/09/23 00:05:02;;;;;;;;;3.00;2.00;;;;;;;;5118395;27;45398;-68
2022/09/23 00:07:28;;;;;;;;;2.67;2.67;;;;;;;;5118768;27;45724;-68
2022/09/23 00:09:54;;;;;;;;;5.33;4.00;;;;;;;;5118266;27;46125;-68
2022/09/23 00:12:20;;;;;;;;;3.67;3.67;;;;;;;;5118660;27;45501;-68
2022/09/23 00:14:45;;;;;;;;;4.00;4.00;;;;;;;;5118328;27;45444;-68
2022/09/23 00:17:10;;;;;;;;;3.00;3.00;;;;;;;;5118557;27;45260;-68
2022/09/23 00:19:37;;;;;;;;;3.00;3.00;;;;;;;;5118079;27;46122;-69
2022/09/23 00:22:02;;;;;;;;;2.00;2.00;;;;;;;;5110658;27;45238;-68
2022/09/23 00:24:31;;;;;;;;;3.00;3.00;;;;;;;;5118520;27;45247;-68
2022/09/23 00:26:56;;;;;;;;;3.00;3.00;;;;;;;;5118431;27;45346;-68
2022/09/23 00:29:22;;;;;;;;;3.00;3.00;;;;;;;;5118134;27;46240;-68
2022/09/23 00:31:47;;;;;;;;;5.00;4.00;;;;;;;;5117182;27;45413;-68
2022/09/23 00:34:12;;;;;;;;;3.00;3.00;;;;;;;;5103560;27;45350;-68
2022/09/23 00:36:39;;;;;;;;;3.33;3.33;;;;;;;;5108010;27;45560;-68
2022/09/23 00:39:04;;;;;;;;;3.00;3.00;;;;;;;;5116295;27;45366;-68
2022/09/23 00:41:29;;;;;;;;;4.67;4.00;;;;;;;;5118064;27;45459;-68
2022/09/23 00:43:58;;;;;;;;;4.33;3.00;;;;;;;;5118155;27;45332;-69
2022/09/23 00:46:37;;;;;;;;;3.33;3.33;;;;;;;;5118249;27;45486;-68
2022/09/23 00:49:05;;;;;;;;;3.33;3.33;;;;;;;;5103194;27;46285;-68
2022/09/23 00:51:35;;;;;;;;;2.00;2.00;;;;;;;;5117909;27;45712;-68
2022/09/23 00:54:01;;;;;;;;;3.00;3.00;;;;;;;;5117830;27;45337;-68
2022/09/23 00:56:26;;;;;;;;;4.33;4.33;;;;;;;;5117912;27;45792;-68
2022/09/23 00:58:52;;;;;;;;;3.00;3.00;;;;;;;;5117645;27;46778;-68
2022/09/23 01:01:18;;;;;;;;;2.67;2.67;;;;;;;;5117250;27;45335;-68
2022/09/23 01:03:44;;;;;;;;;3.33;3.33;;;;;;;;5117685;27;45413;-68
2022/09/23 01:06:09;;;;;;;;;3.00;3.00;;;;;;;;5117590;27;45907;-69
2022/09/23 01:08:34;;;;;;;;;3.00;3.00;;;;;;;;5117676;27;46230;-68
2022/09/23 01:11:17;;;;;;;;;3.00;3.00;;;;;;;;5117518;27;45288;-68
2022/09/23 01:13:42;;;;;;;;;3.67;3.00;;;;;;;;5117729;27;45412;-68
2022/09/23 01:16:28;;;;;;;;;5.00;4.00;;;;;;;;5117316;27;45345;-69
2022/09/23 01:19:00;;;;;;;;;2.33;2.00;;;;;;;;5117564;27;45329;-68
2022/09/23 01:21:26;;;;;;;;;1.00;1.00;;;;;;;;5116416;27;45295;-68
2022/09/23 01:23:54;;;;;;;;;2.33;2.33;;;;;;;;5098966;27;45527;-68
2022/09/23 01:26:37;;;;;;;;;3.00;3.00;;;;;;;;5116458;27;45360;-68
2022/09/23 01:29:14;;;;;;;;;2.67;2.67;;;;;;;;5106333;27;47023;-68
2022/09/23 01:31:50;;;;;;;;;4.00;4.00;;;;;;;;5113709;27;45324;-68
2022/09/23 01:34:23;;;;;;;;;3.00;3.00;;;;;;;;5089341;27;45306;-68
2022/09/23 01:36:53;;;;;;;;;4.00;3.00;;;;;;;;5105497;27;45270;-68
2022/09/23 01:39:29;;;;;;;;;3.00;3.00;;;;;;;;5088201;27;46322;-68
2022/09/23 01:41:55;;;;;;;;;5.67;3.00;;;;;;;;5117033;27;45366;-68
2022/09/23 01:44:29;;;;;;;;;5.67;4.00;;;;;;;;5101450;27;45497;-68
2022/09/23 01:46:57;;;;;;;;;3.00;3.00;;;;;;;;5113224;27;45384;-68
2022/09/23 01:49:27;;;;;;;;;3.00;3.00;;;;;;;;5095727;27;46367;-68
2022/09/23 01:51:57;;;;;;;;;2.00;2.00;;;;;;;;5096147;27;45387;-68
2022/09/23 01:54:27;;;;;;;;;4.00;4.00;;;;;;;;5096436;27;45405;-68
2022/09/23 01:56:57;;;;;;;;;3.33;3.00;;;;;;;;5096461;27;45294;-68
2022/09/23 01:59:26;;;;;;;;;2.67;2.67;;;;;;;;5096049;27;45365;-68
2022/09/23 02:01:54;;;;;;;;;3.00;3.00;;;;;;;;5095908;27;45342;-68
2022/09/23 02:04:24;;;;;;;;;4.00;4.00;;;;;;;;5096164;27;45378;-68
2022/09/23 02:06:59;;;;;;;;;4.67;4.67;;;;;;;;5096192;27;45409;-68
2022/09/23 02:09:29;;;;;;;;;4.33;3.00;;;;;;;;5095863;27;46365;-68
2022/09/23 02:11:59;;;;;;;;;5.33;4.00;;;;;;;;5096098;27;45501;-68
2022/09/23 02:14:28;;;;;;;;;4.00;3.00;;;;;;;;5095771;27;45388;-68
2022/09/23 02:16:55;;;;;;;;;3.00;3.00;;;;;;;;5095874;27;45596;-68
2022/09/23 02:19:47;;;;;;;;;3.00;2.67;;;;;;;;5095755;27;45350;-68
2022/09/23 02:22:25;;;;;;;;;4.00;3.00;;;;;;;;5092595;27;45341;-68
2022/09/23 02:24:50;;;;;;;;;3.00;3.00;;;;;;;;5095905;27;45283;-68
2022/09/23 02:27:28;;;;;;;;;5.00;3.67;;;;;;;;5095826;27;45469;-68
2022/09/23 02:30:02;;;;;;;;;2.33;2.33;;;;;;;;5095541;27;45437;-68
2022/09/23 02:32:45;;;;;;;;;4.00;2.00;;;;;;;;5101127;27;45433;-68
2022/09/23 02:35:21;;;;;;;;;2.00;2.00;;;;;;;;5116195;27;45353;-69
2022/09/23 02:38:05;;;;;;;;;4.67;3.00;;;;;;;;5102693;27;45770;-69
2022/09/23 02:40:37;;;;;;;;;3.00;3.00;;;;;;;;5115846;27;46282;-69
2022/09/23 02:43:05;;;;;;;;;4.00;2.33;;;;;;;;5116318;27;45332;-68
2022/09/23 02:45:32;;;;;;;;;3.00;3.00;;;;;;;;5115996;27;45399;-69
2022/09/23 02:48:01;;;;;;;;;3.00;3.00;;;;;;;;5112906;27;45511;-69
2022/09/23 02:50:26;;;;;;;;;4.00;4.00;;;;;;;;5109377;27;46076;-69
2022/09/23 02:52:52;;;;;;;;;3.00;3.00;;;;;;;;5115912;27;45409;-68
2022/09/23 02:55:17;;;;;;;;;2.33;2.33;;;;;;;;5116688;27;45333;-68
2022/09/23 02:57:43;;;;;;;;;4.00;4.00;;;;;;;;5119503;27;45310;-68
2022/09/23 03:00:08;;;;;;;;;3.00;3.00;;;;;;;;5110204;27;46210;-68
2022/09/23 03:02:50;;;;;;;;;3.00;3.00;;;;;;;;5114648;27;45363;-68
2022/09/23 03:05:18;;;;;;;;;3.00;3.00;;;;;;;;5119640;27;45355;-68
2022/09/23 03:08:03;;;;;;;;;4.00;4.00;;;;;;;;5119522;27;45542;-68
2022/09/23 03:10:51;;;;;;;;;4.00;4.00;;;;;;;;5119346;27;46904;-68
2022/09/23 03:13:30;;;;;;;;;3.00;3.00;;;;;;;;5118553;27;45401;-68
2022/09/23 03:16:01;;;;;;;;;3.00;3.00;;;;;;;;5119561;27;45492;-68
2022/09/23 03:18:33;;;;;;;;;3.00;3.00;;;;;;;;5090770;27;45498;-68
2022/09/23 03:21:17;;;;;;;;;3.00;3.00;;;;;;;;5119325;27;46336;-68
2022/09/23 03:23:44;;;;;;;;;5.33;3.67;;;;;;;;5104721;27;45374;-68
2022/09/23 03:26:15;;;;;;;;;3.00;3.00;;;;;;;;5119468;27;45332;-68
2022/09/23 03:28:42;;;;;;;;;2.00;2.00;;;;;;;;5118866;27;45477;-68
2022/09/23 03:31:09;;;;;;;;;3.00;3.00;;;;;;;;5119044;27;46158;-68
2022/09/23 03:33:36;;;;;;;;;3.00;3.00;;;;;;;;5104399;27;45451;-68
2022/09/23 03:38:53;;;;;;;;;4.00;2.00;;;;;;;;5115093;27;45225;-68
2022/09/23 03:41:24;;;;;;;;;3.33;3.33;;;;;;;;5118530;27;46335;-68
2022/09/23 03:43:52;;;;;;;;;4.00;2.67;;;;;;;;5118732;27;45281;-68
2022/09/23 03:46:17;;;;;;;;;3.00;3.00;;;;;;;;5119045;27;45559;-68
2022/09/23 03:48:44;;;;;;;;;4.00;4.00;;;;;;;;5113283;27;45380;-68
2022/09/23 03:51:25;;;;;;;;;3.67;3.67;;;;;;;;5118139;27;46942;-69
2022/09/23 03:53:50;;;;;;;;;3.33;3.33;;;;;;;;5118846;27;45328;-68
2022/09/23 03:56:15;;;;;;;;;3.00;3.00;;;;;;;;5118467;27;45407;-68
2022/09/23 03:58:41;;;;;;;;;3.00;3.00;;;;;;;;5118948;27;45327;-68
2022/09/23 04:01:06;;;;;;;;;3.33;3.33;;;;;;;;5118570;27;46156;-69
2022/09/23 04:03:31;;;;;;;;;2.33;2.33;;;;;;;;5118666;27;45275;-68
2022/09/23 04:05:57;;;;;;;;;2.67;2.67;;;;;;;;5118569;27;46075;-68
2022/09/23 04:08:22;;;;;;;;;3.00;3.00;;;;;;;;5118028;27;45431;-68
2022/09/23 04:10:49;;;;;;;;;2.33;2.33;;;;;;;;5118445;27;47524;-68
2022/09/23 04:13:14;;;;;;;;;4.00;4.00;;;;;;;;5118469;27;45461;-68
2022/09/23 04:15:39;;;;;;;;;3.00;3.00;;;;;;;;5118887;27;45428;-68
2022/09/23 04:18:04;;;;;;;;;3.67;3.67;;;;;;;;5115181;27;45437;-68
2022/09/23 04:20:30;;;;;;;;;3.00;3.00;;;;;;;;5107002;27;46993;-68
2022/09/23 04:22:55;;;;;;;;;4.00;4.00;;;;;;;;5114543;27;45492;-68
2022/09/23 04:25:20;;;;;;;;;4.75;4.00;;;;;;;;5117987;27;45364;-68
2022/09/23 04:27:45;;;;;;;;;3.33;3.33;;;;;;;;5118482;27;45339;-68
2022/09/23 04:30:11;;;;;;;;;4.00;3.00;;;;;;;;5118237;27;46399;-69
2022/09/23 04:32:36;;;;;;;;;3.00;3.00;;;;;;;;5111204;27;45366;-69
2022/09/23 04:35:02;;;;;;;;;4.00;3.25;;;;;;;;5110969;27;45299;-68
2022/09/23 04:37:28;;;;;;;;;4.00;4.00;;;;;;;;5105674;27;45484;-69
2022/09/23 04:39:54;;;;;;;;;2.33;2.33;;;;;;;;5117608;27;46149;-68
2022/09/23 04:42:19;;;;;;;;;3.33;3.00;;;;;;;;5118141;27;45339;-68
2022/09/23 04:44:44;;;;;;;;;7.00;4.00;;;;;;;;5118178;27;45333;-68
2022/09/23 04:47:10;;;;;;;;;3.00;3.00;;;;;;;;5118017;27;45225;-68
2022/09/23 04:49:35;;;;;;;;;4.00;4.00;;;;;;;;5116940;27;45393;-68
2022/09/23 04:52:01;;;;;;;;;4.67;4.67;;;;;;;;5117327;27;45410;-68
2022/09/23 04:54:26;;;;;;;;;3.33;3.33;;;;;;;;5117604;27;45365;-68
2022/09/23 04:56:51;;;;;;;;;3.00;3.00;;;;;;;;5118110;27;45355;-68
2022/09/23 04:59:17;;;;;;;;;3.00;3.00;;;;;;;;5117511;27;46299;-68
2022/09/23 05:01:42;;;;;;;;;3.33;3.33;;;;;;;;5117767;27;45306;-68
2022/09/23 05:04:09;;;;;;;;;4.00;4.00;;;;;;;;5117675;27;45337;-68
2022/09/23 05:06:35;;;;;;;;;3.00;3.00;;;;;;;;5117529;27;45414;-68
2022/09/23 05:09:01;;;;;;;;;3.00;3.00;;;;;;;;5117272;27;45369;-68
2022/09/23 05:11:28;;;;;;;;;3.00;3.00;;;;;;;;5117393;27;45546;-68
2022/09/23 05:13:53;;;;;;;;;3.33;3.00;;;;;;;;5117702;27;45356;-68
2022/09/23 05:16:19;;;;;;;;;5.00;2.33;;;;;;;;5117379;27;45609;-68
2022/09/23 05:18:45;;;;;;;;;2.67;2.00;;;;;;;;5098862;27;46867;-68
2022/09/23 05:21:11;;;;;;;;;3.00;3.00;;;;;;;;5117483;27;45476;-69
2022/09/23 05:23:36;;;;;;;;;2.00;2.00;;;;;;;;5117465;27;45386;-68
2022/09/23 05:26:03;;;;;;;;;4.00;3.00;;;;;;;;5110355;27;45314;-68
2022/09/23 05:28:31;;;;;;;;;3.00;3.00;;;;;;;;5112207;27;46962;-68
2022/09/23 05:31:04;;;;;;;;;3.00;3.00;;;;;;;;5108028;27;45485;-68
2022/09/23 05:33:30;;;;;;;;;4.00;3.67;;;;;;;;5102861;27;45439;-68
2022/09/23 05:35:55;;;;;;;;;3.33;3.00;;;;;;;;5098584;27;45475;-68
2022/09/23 05:38:20;;;;;;;;;3.00;3.00;;;;;;;;5096297;27;45285;-68
2022/09/23 05:40:45;;;;;;;;;3.00;3.00;;;;;;;;5114687;27;45372;-68
2022/09/23 05:43:11;;;;;;;;;2.00;2.00;;;;;;;;5098750;27;45311;-68
2022/09/23 05:45:36;;;;;;;;;3.00;3.00;;;;;;;;5117235;27;45506;-68
2022/09/23 05:48:01;;;;;;;;;3.00;3.00;;;;;;;;5116999;27;46010;-68
2022/09/23 05:50:26;;;;;;;;;3.00;3.00;;;;;;;;5109589;27;45495;-69
2022/09/23 05:52:51;;;;;;;;;3.00;3.00;;;;;;;;5116111;27;45396;-68
2022/09/23 05:55:16;;;;;;;;;2.00;2.00;;;;;;;;5117116;27;45301;-68
2022/09/23 05:57:42;;;;;;;;;4.00;4.00;;;;;;;;5116640;27;46296;-68
2022/09/23 06:00:08;;;;;;;;;2.00;2.00;;;;;;;;5116896;27;45389;-68
2022/09/23 06:02:33;;;;;;;;;4.00;3.00;;;;;;;;5116974;27;45412;-68
2022/09/23 06:04:58;;;;;;;;;2.00;2.00;;;;;;;;5116846;27;45350;-68
2022/09/23 06:07:24;;;;;;;;;5.33;3.00;;;;;;;;5116207;27;46058;-68
2022/09/23 06:09:49;;;;;;;;;3.67;3.67;;;;;;;;5116665;27;45339;-68
2022/09/23 06:12:14;;;;;;;;;3.00;3.00;;;;;;;;5116844;27;45245;-68
2022/09/23 06:14:40;;;;;;;;;3.00;3.00;;;;;;;;5116581;27;45321;-68
2022/09/23 06:17:05;;;;;;;;;2.67;2.33;;;;;;;;5116535;27;46120;-68
2022/09/23 06:19:30;;;;;;;;;4.00;3.00;;;;;;;;5116587;27;45345;-68
2022/09/23 06:21:55;;;;;;;;;5.00;3.67;;;;;;;;5116560;27;45437;-69
2022/09/23 06:24:20;;;;;;;;;3.33;3.33;;;;;;;;5108603;27;45455;-73
2022/09/23 06:26:46;;;;;;;;;3.00;3.00;;;;;;;;5108678;27;46182;-72
2022/09/23 06:29:11;;;;;;;;;3.00;3.00;;;;;;;;5114647;27;45413;-72
2022/09/23 06:31:37;;;;;;;;;3.00;3.00;;;;;;;;5108755;27;45363;-72
2022/09/23 06:34:02;;;;;;;;;2.00;2.00;;;;;;;;5112756;27;45264;-75
2022/09/23 06:36:27;;;;;;;;;3.33;3.00;;;;;;;;5110711;27;47057;-73
2022/09/23 06:38:53;;;;;;;;;2.00;2.00;;;;;;;;5113121;27;45307;-71
2022/09/23 06:41:19;;;;;;;;;2.00;2.00;;;;;;;;5097908;27;45570;-70
2022/09/23 06:43:45;;;;;;;;;3.00;3.00;;;;;;;;5082503;27;45415;-69
2022/09/23 06:46:12;;;;;;;;;3.75;3.75;;;;;;;;5110393;27;47071;-69
2022/09/23 06:48:37;;;;;;;;;2.67;2.67;;;;;;;;5092336;27;45438;-69
2022/09/23 06:51:06;;;;;;;;;2.00;2.00;;;;;;;;5103889;27;45419;-71
2022/09/23 06:53:31;;;;;;;;;3.00;2.00;;;;;;;;5111349;27;45391;-70
2022/09/23 06:56:06;;;;;;;;;2.00;2.00;;;;;;;;5109513;27;46229;-70
2022/09/23 06:58:32;;;;;;;;;2.00;2.00;;;;;;;;5110453;27;45450;-70
2022/09/23 07:01:02;;;;;;;;;4.00;3.67;;;;;;;;5080861;27;45427;-71
2022/09/23 07:03:27;;;;;;;;;4.33;3.00;;;;;;;;5093701;27;45427;-73
2022/09/23 07:05:56;;;;;;;;;3.00;3.00;;;;;;;;5094199;27;46238;-73
2022/09/23 07:08:22;;;;;;;;;5.33;4.00;;;;;;;;5095725;27;45362;-73
2022/09/23 07:10:54;;;;;;;;;3.00;3.00;;;;;;;;5095330;27;45278;-73
2022/09/23 07:13:19;;;;;;;;;4.00;4.00;;;;;;;;5080653;27;45410;-73
2022/09/23 07:15:49;;;;;;;;;3.33;3.00;;;;;;;;5094614;27;48773;-73
2022/09/23 07:18:14;;;;;;;;;4.00;3.00;;;;;;;;5095231;27;45366;-73
2022/09/23 07:20:39;;;;;;;;;2.33;2.33;;;;;;;;5094937;27;45409;-74
2022/09/23 07:23:05;;;;;;;;;3.00;3.00;;;;;;;;5095181;27;45511;-73
2022/09/23 07:25:32;;;;;;;;;3.00;3.00;;;;;;;;5095237;27;46331;-73
2022/09/23 07:27:58;;;;;;;;;3.00;3.00;;;;;;;;5094721;27;45359;-73
2022/09/23 07:30:23;;;;;;;;;5.00;4.00;;;;;;;;5095341;27;45365;-73
2022/09/23 07:32:49;;;;;;;;;2.33;2.33;;;;;;;;5094845;27;45422;-69
2022/09/23 07:35:14;;;;;;;;;2.33;2.33;;;;;;;;5109249;27;46853;-69
2022/09/23 07:37:39;;;;;;;;;5.00;5.00;;;;;;;;5103181;27;45373;-70
2022/09/23 07:40:04;;;;;;;;;4.67;2.00;;;;;;;;5115537;27;45645;-70
2022/09/23 07:42:29;;;;;;;;;4.00;4.00;;;;;;;;5116527;27;45232;-70
2022/09/23 07:44:56;;;;;;;;;5.33;3.00;;;;;;;;5118927;27;46046;-70
2022/09/23 07:47:22;;;;;;;;;2.33;2.33;;;;;;;;5118890;27;45322;-70
2022/09/23 07:49:47;;;;;;;;;4.33;3.00;;;;;;;;5118718;27;45377;-70
2022/09/23 07:52:12;;;;;;;;;3.00;3.00;;;;;;;;5104438;27;45417;-70
2022/09/23 07:54:37;;;;;;;;;4.33;4.33;;;;;;;;5118447;27;46287;-71
2022/09/23 07:57:03;;;;;;;;;4.00;3.00;;;;;;;;5118789;27;45288;-70
2022/09/23 07:59:28;;;;;;;;;6.00;3.00;;;;;;;;5118764;27;45377;-70
2022/09/23 08:01:54;;;;;;;;;2.67;2.67;;;;;;;;5118840;27;45211;-70
2022/09/23 08:04:21;;;;;;;;;5.00;4.00;;;;;;;;5118077;27;46862;-70
2022/09/23 08:06:52;;;;;;;;;2.33;1.67;;;;;;;;5118235;27;45410;-70
2022/09/23 08:09:18;;;;;;;;;3.00;3.00;;;;;;;;5118444;27;45428;-70
2022/09/23 08:11:43;;;;;;;;;5.00;4.00;;;;;;;;5118578;27;45388;-70
2022/09/23 08:14:11;;;;;;;;;3.00;2.00;;;;;;;;5118464;27;46218;-70
2022/09/23 08:16:36;;;;;;;;;4.00;3.00;;;;;;;;5118091;27;45418;-70
2022/09/23 08:19:01;;;;;;;;;5.67;5.00;;;;;;;;5118346;27;45475;-69
2022/09/23 08:21:26;;;;;;;;;5.00;3.00;;;;;;;;5118290;27;45394;-69
2022/09/23 08:23:52;;;;;;;;;2.67;2.67;;;;;;;;5118314;27;45998;-69
2022/09/23 08:26:17;;;;;;;;;2.00;2.00;;;;;;;;5117305;27;45448;-70
2022/09/23 08:28:43;;;;;;;;;3.33;3.33;;;;;;;;5118475;27;45337;-70
2022/09/23 08:31:08;;;;;;;;;3.00;3.00;;;;;;;;5118431;27;45537;-71
2022/09/23 08:33:33;;;;;;;;;3.00;2.67;;;;;;;;5102943;27;45448;-70
2022/09/23 08:35:59;;;;;;;;;6.75;5.00;;;;;;;;5099508;27;45577;-70
2022/09/23 08:38:25;;;;;;;;;5.00;3.00;;;;;;;;5110688;27;45267;-70
2022/09/23 08:40:54;;;;;;;;;3.67;3.67;;;;;;;;5118122;27;45490;-70
2022/09/23 08:43:20;;;;;;;;;4.00;3.00;;;;;;;;5118071;27;45377;-69
2022/09/23 08:45:46;;;;;;;;;4.00;3.00;;;;;;;;5117450;27;45314;-70
2022/09/23 08:48:12;;;;;;;;;4.00;4.00;;;;;;;;5118248;27;45285;-70
2022/09/23 08:50:41;;;;;;;;;2.33;2.33;;;;;;;;5118043;27;45346;-70
2022/09/23 08:53:26;;;;;;;;;4.33;4.33;;;;;;;;5116209;27;46167;-70
2022/09/23 08:55:53;;;;;;;;;5.33;4.33;;;;;;;;5113560;27;45370;-70
2022/09/23 08:58:28;;;;;;;;;4.67;3.00;;;;;;;;5118084;27;45425;-70
2022/09/23 09:01:13;;;;;;;;;3.33;3.33;;;;;;;;5117656;27;45611;-70
2022/09/23 09:03:44;;;;;;;;;3.67;3.67;;;;;;;;5107059;27;46966;-70
2022/09/23 09:06:14;;;;;;;;;4.00;4.00;;;;;;;;5114088;27;45658;-70
2022/09/23 09:08:40;;;;;;;;;5.67;4.00;;;;;;;;5117635;27;45419;-70
2022/09/23 09:11:05;;;;;;;;;2.00;2.00;;;;;;;;5117305;27;45469;-70
2022/09/23 09:13:32;;;;;;;;;5.00;5.00;;;;;;;;5117579;27;46071;-70
2022/09/23 09:16:10;;;;;;;;;5.33;4.00;;;;;;;;5117234;27;45735;-69
2022/09/23 09:18:39;;;;;;;;;4.00;4.00;;;;;;;;5091013;27;45350;-69
2022/09/23 09:21:11;;;;;;;;;6.00;5.00;;;;;;;;5117524;27;45408;-70
2022/09/23 09:23:39;;;;;;;;;4.67;4.00;;;;;;;;5117309;27;46168;-70
2022/09/23 09:26:04;;;;;;;;;3.00;3.00;;;;;;;;5117232;27;45534;-70
2022/09/23 09:28:35;;;;;;;;;6.67;4.33;;;;;;;;5109490;27;45457;-69
2022/09/23 09:31:01;;;;;;;;;6.00;4.00;;;;;;;;5108148;27;45511;-70
2022/09/23 09:33:43;;;;;;;;;4.00;3.67;;;;;;;;5098998;27;46216;-70
2022/09/23 09:36:08;;;;;;;;;4.00;4.00;;;;;;;;5098323;27;45379;-70
2022/09/23 09:38:34;;;;;;;;;5.00;4.00;;;;;;;;5110661;27;45337;-70
2022/09/23 09:41:07;;;;;;;;;4.00;3.75;;;;;;;;5117327;27;45373;-70
2022/09/23 09:43:34;;;;;;;;;4.00;4.00;;;;;;;;5117196;27;47042;-69
2022/09/23 09:45:59;;;;;;;;;4.33;4.33;;;;;;;;5116625;27;45604;-70
2022/09/23 09:48:33;;;;;;;;;4.67;3.33;;;;;;;;5117456;27;45451;-69
2022/09/23 09:51:17;;;;;;;;;5.00;4.33;;;;;;;;5117358;27;45349;-69
2022/09/23 09:53:42;;;;;;;;;4.00;4.00;;;;;;;;5116818;27;47219;-69
2022/09/23 09:56:09;;;;;;;;;3.67;3.00;;;;;;;;5106778;27;45425;-70
2022/09/23 09:58:42;;;;;;;;;4.50;4.00;;;;;;;;5116650;27;45453;-70
2022/09/23 10:01:08;;;;;;;;;4.00;4.00;;;;;;;;5116616;27;45442;-70
2022/09/23 10:03:38;;;;;;;;;5.00;5.00;;;;;;;;5116858;27;45361;-70
2022/09/23 10:06:17;;;;;;;;;4.00;4.00;;;;;;;;5113183;27;45381;-70
2022/09/23 10:08:47;;;;;;;;;3.33;3.00;;;;;;;;5106280;27;45731;-70
2022/09/23 10:11:16;;;;;;;;;5.67;5.00;;;;;;;;5116421;27;45355;-70
2022/09/23 10:13:59;;;;;;;;;4.67;4.67;;;;;;;;5116318;27;45382;-70
2022/09/23 10:16:25;;;;;;;;;3.33;3.33;;;;;;;;5116350;27;45379;-70
2022/09/23 10:18:54;;;;;;;;;5.00;5.00;;;;;;;;5116789;27;45388;-69
2022/09/23 10:21:21;;;;;;;;;5.00;5.00;;;;;;;;5101853;27;45214;-70
2022/09/23 10:23:51;;;;;;;;;5.00;3.67;;;;;;;;5116537;27;45535;-70
2022/09/23 10:26:17;;;;;;;;;6.67;6.33;;;;;;;;5116441;27;45363;-70
2022/09/23 10:28:54;;;;;;;;;4.67;4.33;;;;;;;;5116292;27;45444;-69
2022/09/23 10:31:31;;;;;;;;;5.00;5.00;;;;;;;;5089648;27;45371;-70
2022/09/23 10:34:00;;;;;;;;;6.33;4.67;;;;;;;;5092923;27;46138;-70
2022/09/23 10:36:32;;;;;;;;;3.67;3.67;;;;;;;;5079275;27;45381;-69
2022/09/23 10:46:37;;;;;;;;;6.33;3.33;;;;;;;;5113270;27;45348;-70
2022/09/23 10:47:55;;;;;;;;;3.67;3.33;;;;;;;;5116069;27;45289;-70
2022/09/23 10:50:33;;;;;;;;;4.33;4.33;;;;;;;;5115751;27;45425;-70
2022/09/23 10:53:16;;;;;;;;;3.50;3.50;;;;;;;;5116153;27;45495;-69
2022/09/23 10:56:00;;;;;;;;;9.00;6.00;;;;;;;;5114507;27;45404;-70
2022/09/23 10:58:34;;;;;;;;;6.67;4.00;;;;;;;;5115632;27;45365;-69
2022/09/23 11:01:04;;;;;;;;;5.00;5.00;;;;;;;;5115996;27;45574;-69
2022/09/23 11:03:48;;;;;;;;;5.00;5.00;;;;;;;;5116289;27;45448;-69
2022/09/23 11:06:31;;;;;;;;;5.67;4.33;;;;;;;;5115565;27;47231;-69
2022/09/23 11:09:15;;;;;;;;;6.33;4.33;;;;;;;;5115651;27;45408;-69
2022/09/23 11:11:43;;;;;;;;;4.67;3.67;;;;;;;;5087310;27;45341;-69
2022/09/23 11:14:21;;;;;;;;;2.00;2.00;;;;;;;;5115919;27;45346;-69
2022/09/23 11:16:55;;;;;;;;;4.00;4.00;;;;;;;;5116712;27;47395;-69
2022/09/23 11:19:26;;;;;;;;;4.00;4.00;;;;;;;;5119405;27;45401;-69
2022/09/23 11:21:57;;;;;;;;;5.33;4.00;;;;;;;;5065872;27;45407;-69
2022/09/23 11:24:22;;;;;;;;;4.00;4.00;;;;;;;;5111721;27;45478;-69
2022/09/23 11:27:06;;;;;;;;;5.33;5.00;;;;;;;;5118606;27;45391;-70
2022/09/23 11:29:41;;;;;;;;;4.00;4.00;;;;;;;;5112198;27;45351;-70
2022/09/23 11:32:26;;;;;;;;;6.00;5.00;;;;;;;;5088433;27;45291;-70
2022/09/23 11:34:57;;;;;;;;;5.00;5.00;;;;;;;;5109996;27;45568;-69
2022/09/23 11:37:28;;;;;;;;;4.00;4.00;;;;;;;;5106026;27;45410;-70
2022/09/23 11:40:10;;;;;;;;;4.00;4.00;;;;;;;;5118420;27;45396;-69
2022/09/23 11:42:45;;;;;;;;;5.00;5.00;;;;;;;;5118819;27;45363;-70
2022/09/23 11:45:17;;;;;;;;;5.33;5.33;;;;;;;;5118729;27;45960;-70
2022/09/23 11:47:47;;;;;;;;;5.00;5.00;;;;;;;;5118385;27;47180;-70
2022/09/23 11:50:30;;;;;;;;;4.00;4.00;;;;;;;;5118678;27;45371;-69
2022/09/23 11:53:16;;;;;;;;;4.00;4.00;;;;;;;;5118558;27;45405;-69
2022/09/23 11:55:46;;;;;;;;;5.00;4.00;;;;;;;;5054579;28;45411;-69
2022/09/23 11:58:19;;;;;;;;;4.00;3.33;;;;;;;;5043631;28;46191;-69
2022/09/23 12:00:54;;;;;;;;;5.33;5.00;;;;;;;;5054828;28;45450;-69
2022/09/23 12:03:39;;;;;;;;;4.67;3.33;;;;;;;;5055005;28;45428;-69
2022/09/23 12:06:08;;;;;;;;;6.33;5.00;;;;;;;;5052655;28;45552;-69
2022/09/23 12:08:35;;;;;;;;;5.33;4.00;;;;;;;;5043209;28;47204;-69
2022/09/23 12:11:00;;;;;;;;;6.00;3.00;;;;;;;;5054514;28;45373;-69
2022/09/23 12:13:51;;;;;;;;;6.00;3.00;;;;;;;;5054980;28;45530;-69
2022/09/23 12:16:25;;;;;;;;;4.67;4.33;;;;;;;;5053037;28;45399;-69
2022/09/23 12:19:03;;;;;;;;;5.75;4.75;;;;;;;;5026810;28;48111;-69
2022/09/23 12:21:28;;;;;;;;;5.00;4.00;;;;;;;;5054651;28;45449;-69
2022/09/23 12:24:01;;;;;;;;;4.00;4.00;;;;;;;;5054519;28;45416;-70
2022/09/23 12:26:28;;;;;;;;;7.00;5.00;;;;;;;;5054485;28;45481;-69
2022/09/23 12:28:58;;;;;;;;;6.00;5.00;;;;;;;;5053371;28;45482;-69
2022/09/23 12:31:29;;;;;;;;;3.67;3.67;;;;;;;;5041397;28;45338;-69
2022/09/23 12:33:55;;;;;;;;;5.00;5.00;;;;;;;;5096256;27;45353;-69
2022/09/23 12:36:25;;;;;;;;;7.00;5.00;;;;;;;;5110403;27;45434;-69
2022/09/23 12:38:52;;;;;;;;;5.67;5.67;;;;;;;;5113606;27;46139;-69
2022/09/23 12:41:28;;;;;;;;;8.50;4.75;;;;;;;;5118154;27;45356;-69
2022/09/23 12:44:12;;;;;;;;;4.00;4.00;;;;;;;;5118134;27;45290;-69
2022/09/23 12:46:38;;;;;;;;;6.00;5.25;;;;;;;;5117943;27;45431;-68
2022/09/23 12:49:05;;;;;;;;;6.00;5.00;;;;;;;;5117691;27;46238;-69
2022/09/23 12:51:33;;;;;;;;;5.00;5.00;;;;;;;;5117894;27;45305;-69
2022/09/23 12:54:02;;;;;;;;;4.67;4.00;;;;;;;;5117386;27;45373;-69
2022/09/23 12:56:30;;;;;;;;;8.50;4.75;;;;;;;;5110760;27;45343;-69
2022/09/23 12:59:18;;;;;;;;;5.33;5.33;;;;;;;;5110531;27;47039;-69
2022/09/23 13:01:44;;;;;;;;;4.00;4.00;;;;;;;;5109196;27;45400;-70
2022/09/23 13:07:14;;;;;;;;;7.00;5.75;;;;;;;;5117336;27;45355;-69
2022/09/23 13:09:40;;;;;;;;;6.00;6.00;;;;;;;;5117299;27;46170;-69
2022/09/23 13:12:22;;;;;;;;;5.00;4.00;;;;;;;;5117674;27;45248;-69
2022/09/23 13:14:48;;;;;;;;;4.33;4.33;;;;;;;;5117495;27;45374;-69
2022/09/23 13:17:22;;;;;;;;;6.67;5.00;;;;;;;;5117575;27;45290;-69
2022/09/23 13:19:57;;;;;;;;;4.00;4.00;;;;;;;;5117260;27;45327;-69
2022/09/23 13:22:40;;;;;;;;;4.00;4.00;;;;;;;;5117147;27;45416;-70
2022/09/23 13:25:15;;;;;;;;;4.00;4.00;;;;;;;;5117294;27;45512;-69
2022/09/23 13:27:40;;;;;;;;;6.00;5.33;;;;;;;;5117423;27;45417;-69
2022/09/23 13:30:16;;;;;;;;;6.00;4.00;;;;;;;;5116898;27;46109;-69
2022/09/23 13:32:48;;;;;;;;;5.00;4.00;;;;;;;;5102658;27;45286;-69
2022/09/23 13:35:16;;;;;;;;;5.00;5.00;;;;;;;;5110845;27;45337;-70
2022/09/23 13:37:44;;;;;;;;;5.67;5.67;;;;;;;;5104173;27;45287;-69
2022/09/23 13:40:16;;;;;;;;;7.00;4.00;;;;;;;;5116860;27;46968;-69
2022/09/23 13:42:43;;;;;;;;;4.00;4.00;;;;;;;;5116977;27;45347;-69
2022/09/23 13:45:14;;;;;;;;;6.00;4.00;;;;;;;;5117162;27;45339;-69
2022/09/23 13:47:41;;;;;;;;;7.00;5.33;;;;;;;;5117085;27;45461;-69
2022/09/23 13:50:12;;;;;;;;;5.67;5.33;;;;;;;;5117043;27;46174;-69
2022/09/23 13:52:37;;;;;;;;;4.33;4.33;;;;;;;;5116715;27;45406;-69
2022/09/23 13:55:02;;;;;;;;;3.00;3.00;;;;;;;;5117056;27;45451;-69
2022/09/23 13:57:30;;;;;;;;;6.00;6.00;;;;;;;;5116904;27;45486;-69
2022/09/23 14:00:15;;;;;;;;;4.67;4.67;;;;;;;;5104051;27;45284;-69
2022/09/23 14:02:41;;;;;;;;;5.00;5.00;;;;;;;;5116474;27;45397;-69
2022/09/23 14:05:11;;;;;;;;;6.00;4.67;;;;;;;;5115826;27;45413;-69
2022/09/23 14:07:36;;;;;;;;;4.00;4.00;;;;;;;;5116809;27;45375;-70
2022/09/23 14:10:02;;;;;;;;;6.75;6.00;;;;;;;;5097921;27;47377;-69
2022/09/23 14:12:27;;;;;;;;;5.00;3.67;;;;;;;;5116680;27;45367;-69
2022/09/23 14:14:52;;;;;;;;;6.33;5.00;;;;;;;;5116772;27;45284;-69
2022/09/23 14:17:24;;;;;;;;;5.33;5.33;;;;;;;;5115862;27;45440;-69
2022/09/23 14:19:49;;;;;;;;;5.67;4.67;;;;;;;;5116200;27;47137;-70
2022/09/23 14:22:28;;;;;;;;;5.00;5.00;;;;;;;;5116820;27;45409;-70
2022/09/23 14:24:54;;;;;;;;;6.00;5.00;;;;;;;;5116565;27;45290;-70
2022/09/23 14:27:22;;;;;;;;;4.00;4.00;;;;;;;;5116382;27;45244;-70
2022/09/23 14:29:48;;;;;;;;;5.00;5.00;;;;;;;;5116423;27;45420;-70
2022/09/23 14:32:14;;;;;;;;;5.00;5.00;;;;;;;;5110345;27;45372;-70
2022/09/23 14:34:40;;;;;;;;;5.00;4.00;;;;;;;;5105260;27;45335;-70
2022/09/23 14:40:01;;;;;;;;;5.00;4.00;;;;;;;;5116276;27;45303;-70
2022/09/23 14:42:28;;;;;;;;;4.00;3.67;;;;;;;;5116109;27;45355;-70
2022/09/23 14:44:54;;;;;;;;;6.00;5.25;;;;;;;;5096701;27;45292;-69
2022/09/23 14:47:19;;;;;;;;;6.00;5.00;;;;;;;;5107433;27;45398;-70
2022/09/23 14:50:35;;;;;;;;;4.75;4.00;;;;;;;;5115664;27;46218;-69
2022/09/23 14:52:34;;;;;;;;;6.00;5.00;;;;;;;;5118511;27;45416;-69
2022/09/23 14:54:59;;;;;;;;;5.25;5.00;;;;;;;;5110836;27;45465;-69
2022/09/23 14:57:27;;;;;;;;;6.00;4.00;;;;;;;;5113583;27;45404;-69
2022/09/23 14:59:54;;;;;;;;;4.00;4.00;;;;;;;;5099015;27;46958;-69
2022/09/23 15:02:26;;;;;;;;;5.00;5.00;;;;;;;;5112925;27;45335;-69
2022/09/23 15:05:06;;;;;;;;;4.00;4.00;;;;;;;;5090504;27;45326;-70
2022/09/23 15:07:31;;;;;;;;;5.00;3.50;;;;;;;;5119892;27;45212;-69
2022/09/23 15:09:57;;;;;;;;;6.25;4.75;;;;;;;;5119303;27;45940;-69